TVO3538 LIRN-LGSA
Flight info
| Callsign | TVO3538 |
|---|---|
| Flight time | 1h 32m |
| Altitude | 39000 |
| Route | POLIT DCT LODPA DCT RUTOM UN604 ARA UL612 TRL/N0398F310 UN1 SOKRI |
| Aircraft | A20N/M-SDE2E3FGHIRWXY/LB1 |
Departure
| Time | 2026-05-07 18:42 |
|---|---|
| Airport | Naples International Airport (LIRN) |
Arrival
| Time | 2026-05-07 20:14 |
|---|---|
| Airport | Chania International Airport (LGSA) |
| Time | Latitude | Longitude | Altitude | Speed | Heading |
|---|---|---|---|---|---|
| 2026-05-07 18:05 | 40.88146 | 14.28610 | 281 ft | 0 kts | 327° |
| 2026-05-07 18:29 | 40.88139 | 14.28616 | 281 ft | 2 kts | 327° |
| 2026-05-07 18:29 | 40.88127 | 14.28626 | 282 ft | 2 kts | 327° |
| 2026-05-07 18:29 | 40.88114 | 14.28637 | 282 ft | 2 kts | 328° |
| 2026-05-07 18:29 | 40.88100 | 14.28644 | 282 ft | 2 kts | 351° |
| 2026-05-07 18:30 | 40.88085 | 14.28645 | 282 ft | 2 kts | 9° |
| 2026-05-07 18:30 | 40.88071 | 14.28639 | 282 ft | 2 kts | 26° |
| 2026-05-07 18:30 | 40.88059 | 14.28628 | 283 ft | 2 kts | 44° |
| 2026-05-07 18:30 | 40.88053 | 14.28620 | 283 ft | 1 kts | 55° |
| 2026-05-07 18:31 | 40.88051 | 14.28616 | 283 ft | 0 kts | 53° |
| 2026-05-07 18:33 | 40.88055 | 14.28623 | 283 ft | 2 kts | 52° |
| 2026-05-07 18:33 | 40.88075 | 14.28658 | 282 ft | 7 kts | 52° |
| 2026-05-07 18:34 | 40.88113 | 14.28722 | 281 ft | 10 kts | 52° |
| 2026-05-07 18:34 | 40.88166 | 14.28811 | 277 ft | 9 kts | 53° |
| 2026-05-07 18:34 | 40.88187 | 14.28851 | 275 ft | 0 kts | 53° |
| 2026-05-07 18:35 | 40.88192 | 14.28853 | 275 ft | 0 kts | 7° |
| 2026-05-07 18:35 | 40.88193 | 14.28846 | 275 ft | 1 kts | 257° |
| 2026-05-07 18:35 | 40.88190 | 14.28839 | 276 ft | 0 kts | 227° |
| 2026-05-07 18:35 | 40.88190 | 14.28840 | 276 ft | 0 kts | 227° |
| 2026-05-07 18:36 | 40.88186 | 14.28834 | 276 ft | 1 kts | 226° |
| 2026-05-07 18:36 | 40.88174 | 14.28818 | 277 ft | 2 kts | 226° |
| 2026-05-07 18:36 | 40.88166 | 14.28807 | 277 ft | 1 kts | 225° |
| 2026-05-07 18:37 | 40.88155 | 14.28792 | 278 ft | 1 kts | 227° |
| 2026-05-07 18:37 | 40.88152 | 14.28789 | 278 ft | 0 kts | 227° |
| 2026-05-07 18:37 | 40.88147 | 14.28780 | 278 ft | 2 kts | 230° |
| 2026-05-07 18:37 | 40.88123 | 14.28740 | 280 ft | 8 kts | 232° |
| 2026-05-07 18:38 | 40.88084 | 14.28673 | 282 ft | 9 kts | 232° |
| 2026-05-07 18:38 | 40.88048 | 14.28595 | 283 ft | 9 kts | 248° |
| 2026-05-07 18:38 | 40.88044 | 14.28513 | 285 ft | 8 kts | 280° |
| 2026-05-07 18:38 | 40.88054 | 14.28433 | 286 ft | 8 kts | 277° |
| 2026-05-07 18:39 | 40.88061 | 14.28352 | 287 ft | 9 kts | 275° |
| 2026-05-07 18:39 | 40.88067 | 14.28269 | 288 ft | 8 kts | 273° |
| 2026-05-07 18:39 | 40.88049 | 14.28198 | 289 ft | 7 kts | 240° |
| 2026-05-07 18:39 | 40.88015 | 14.28140 | 290 ft | 8 kts | 216° |
| 2026-05-07 18:40 | 40.87957 | 14.28107 | 291 ft | 9 kts | 203° |
| 2026-05-07 18:40 | 40.87913 | 14.28048 | 292 ft | 9 kts | 234° |
| 2026-05-07 18:40 | 40.87877 | 14.27985 | 293 ft | 7 kts | 232° |
| 2026-05-07 18:40 | 40.87855 | 14.27922 | 294 ft | 7 kts | 270° |
| 2026-05-07 18:41 | 40.87883 | 14.27862 | 294 ft | 8 kts | 320° |
| 2026-05-07 18:41 | 40.87932 | 14.27813 | 294 ft | 9 kts | 324° |
| 2026-05-07 18:41 | 40.87998 | 14.27805 | 293 ft | 10 kts | 34° |
| 2026-05-07 18:41 | 40.88048 | 14.27900 | 291 ft | 17 kts | 57° |
| 2026-05-07 18:42 | 40.88235 | 14.28293 | 285 ft | 88 kts | 58° |
| 2026-05-07 18:42 | 40.88685 | 14.29246 | 261 ft | 153 kts | 57° |
| 2026-05-07 18:42 | 40.89285 | 14.30567 | 635 ft | 172 kts | 58° |
| 2026-05-07 18:42 | 40.89897 | 14.31880 | 1361 ft | 171 kts | 56° |
| 2026-05-07 18:43 | 40.90504 | 14.33204 | 2136 ft | 170 kts | 57° |
| 2026-05-07 18:43 | 40.91131 | 14.34528 | 2757 ft | 179 kts | 57° |
| 2026-05-07 18:43 | 40.91821 | 14.35963 | 3306 ft | 193 kts | 57° |
| 2026-05-07 18:43 | 40.92560 | 14.37509 | 3797 ft | 212 kts | 57° |
| 2026-05-07 18:44 | 40.93418 | 14.39175 | 4448 ft | 225 kts | 46° |
| 2026-05-07 18:44 | 40.94722 | 14.40244 | 5355 ft | 228 kts | 17° |
| 2026-05-07 18:44 | 40.96305 | 14.40356 | 6162 ft | 238 kts | 349° |
| 2026-05-07 18:44 | 40.97796 | 14.39409 | 6926 ft | 247 kts | 319° |
| 2026-05-07 18:45 | 40.98760 | 14.37532 | 7717 ft | 253 kts | 286° |
| 2026-05-07 18:45 | 40.98867 | 14.35254 | 8483 ft | 255 kts | 253° |
| 2026-05-07 18:45 | 40.98070 | 14.33229 | 9281 ft | 251 kts | 223° |
| 2026-05-07 18:45 | 40.96711 | 14.31808 | 10110 ft | 250 kts | 209° |
| 2026-05-07 18:46 | 40.95229 | 14.30653 | 10913 ft | 251 kts | 207° |
| 2026-05-07 18:46 | 40.93722 | 14.29506 | 11740 ft | 252 kts | 208° |
| 2026-05-07 18:46 | 40.92228 | 14.28328 | 12539 ft | 253 kts | 210° |
| 2026-05-07 18:46 | 40.90737 | 14.27113 | 13317 ft | 254 kts | 211° |
| 2026-05-07 18:47 | 40.89255 | 14.25884 | 14078 ft | 256 kts | 212° |
| 2026-05-07 18:47 | 40.87754 | 14.24631 | 14810 ft | 258 kts | 212° |
| 2026-05-07 18:47 | 40.86154 | 14.23548 | 15511 ft | 261 kts | 193° |
| 2026-05-07 18:47 | 40.84361 | 14.23479 | 16108 ft | 269 kts | 169° |
| 2026-05-07 18:48 | 40.82489 | 14.24169 | 16490 ft | 286 kts | 165° |
| 2026-05-07 18:48 | 40.80544 | 14.24946 | 16819 ft | 303 kts | 165° |
| 2026-05-07 18:48 | 40.78463 | 14.25769 | 17121 ft | 321 kts | 165° |
| 2026-05-07 18:48 | 40.76261 | 14.26619 | 17477 ft | 337 kts | 166° |
| 2026-05-07 18:49 | 40.73979 | 14.27494 | 17975 ft | 345 kts | 166° |
| 2026-05-07 18:49 | 40.71661 | 14.28384 | 18618 ft | 350 kts | 166° |
| 2026-05-07 18:49 | 40.69336 | 14.29272 | 19285 ft | 353 kts | 166° |
| 2026-05-07 18:49 | 40.66954 | 14.30185 | 19914 ft | 357 kts | 166° |
| 2026-05-07 18:50 | 40.64558 | 14.31099 | 20518 ft | 362 kts | 166° |
| 2026-05-07 18:50 | 40.62136 | 14.32025 | 21103 ft | 366 kts | 167° |
| 2026-05-07 18:50 | 40.59725 | 14.33071 | 21647 ft | 372 kts | 160° |
| 2026-05-07 18:50 | 40.57406 | 14.34679 | 22193 ft | 380 kts | 150° |
| 2026-05-07 18:51 | 40.55286 | 14.36815 | 22727 ft | 387 kts | 142° |
| 2026-05-07 18:51 | 40.53242 | 14.39157 | 23258 ft | 392 kts | 142° |
| 2026-05-07 18:51 | 40.51216 | 14.41525 | 23768 ft | 397 kts | 142° |
| 2026-05-07 18:51 | 40.49129 | 14.43953 | 24310 ft | 400 kts | 142° |
| 2026-05-07 18:52 | 40.47059 | 14.46353 | 24816 ft | 404 kts | 143° |
| 2026-05-07 18:52 | 40.44943 | 14.48791 | 25291 ft | 408 kts | 143° |
| 2026-05-07 18:52 | 40.42791 | 14.51267 | 25754 ft | 412 kts | 143° |
| 2026-05-07 18:52 | 40.40646 | 14.53721 | 26221 ft | 416 kts | 144° |
| 2026-05-07 18:53 | 40.38449 | 14.56238 | 26647 ft | 420 kts | 144° |
| 2026-05-07 18:53 | 40.36237 | 14.58767 | 27103 ft | 423 kts | 144° |
| 2026-05-07 18:53 | 40.34031 | 14.61289 | 27528 ft | 426 kts | 144° |
| 2026-05-07 18:53 | 40.31775 | 14.63861 | 27937 ft | 430 kts | 144° |
| 2026-05-07 18:54 | 40.29514 | 14.66446 | 28353 ft | 433 kts | 146° |
| 2026-05-07 18:54 | 40.27250 | 14.69023 | 28765 ft | 436 kts | 145° |
| 2026-05-07 18:54 | 40.24936 | 14.71656 | 29082 ft | 441 kts | 146° |
| 2026-05-07 18:54 | 40.22633 | 14.74279 | 29445 ft | 444 kts | 146° |
| 2026-05-07 18:55 | 40.20297 | 14.76936 | 29801 ft | 447 kts | 146° |
| 2026-05-07 18:55 | 40.17928 | 14.79628 | 30146 ft | 451 kts | 146° |
| 2026-05-07 18:55 | 40.15606 | 14.82390 | 30508 ft | 456 kts | 144° |
| 2026-05-07 18:55 | 40.13386 | 14.85350 | 30906 ft | 461 kts | 140° |
| 2026-05-07 18:56 | 40.11285 | 14.88504 | 31290 ft | 464 kts | 138° |
| 2026-05-07 18:56 | 40.09188 | 14.91754 | 31613 ft | 467 kts | 138° |
| 2026-05-07 18:56 | 40.07101 | 14.94999 | 31883 ft | 471 kts | 138° |
| 2026-05-07 18:56 | 40.05014 | 14.98245 | 32192 ft | 473 kts | 138° |
| 2026-05-07 18:57 | 40.02901 | 15.01518 | 32468 ft | 475 kts | 139° |
| 2026-05-07 18:57 | 40.00757 | 15.04833 | 32789 ft | 476 kts | 139° |
| 2026-05-07 18:57 | 39.98620 | 15.08135 | 33125 ft | 476 kts | 139° |
| 2026-05-07 18:57 | 39.96504 | 15.11401 | 33495 ft | 475 kts | 140° |
| 2026-05-07 18:58 | 39.94386 | 15.14666 | 33897 ft | 473 kts | 140° |
| 2026-05-07 18:58 | 39.92273 | 15.17912 | 34284 ft | 472 kts | 140° |
| 2026-05-07 18:58 | 39.90133 | 15.21191 | 34612 ft | 473 kts | 140° |
| 2026-05-07 18:58 | 39.88021 | 15.24427 | 34903 ft | 474 kts | 140° |
| 2026-05-07 18:59 | 39.85872 | 15.27717 | 35222 ft | 474 kts | 140° |
| 2026-05-07 18:59 | 39.83749 | 15.30960 | 35495 ft | 475 kts | 140° |
| 2026-05-07 18:59 | 39.81604 | 15.34244 | 35816 ft | 476 kts | 140° |
| 2026-05-07 18:59 | 39.79478 | 15.37492 | 36139 ft | 476 kts | 140° |
| 2026-05-07 19:00 | 39.77340 | 15.40756 | 36516 ft | 474 kts | 140° |
| 2026-05-07 19:00 | 39.75194 | 15.44032 | 36928 ft | 471 kts | 140° |
| 2026-05-07 19:00 | 39.73093 | 15.47235 | 37227 ft | 471 kts | 140° |
| 2026-05-07 19:00 | 39.70975 | 15.50447 | 37402 ft | 473 kts | 140° |
| 2026-05-07 19:01 | 39.68821 | 15.53719 | 37604 ft | 474 kts | 140° |
| 2026-05-07 19:01 | 39.66689 | 15.56946 | 37772 ft | 476 kts | 140° |
| 2026-05-07 19:01 | 39.64522 | 15.60231 | 37962 ft | 477 kts | 140° |
| 2026-05-07 19:01 | 39.62367 | 15.63498 | 38192 ft | 478 kts | 140° |
| 2026-05-07 19:02 | 39.60222 | 15.66743 | 38395 ft | 478 kts | 140° |
| 2026-05-07 19:02 | 39.58074 | 15.69992 | 38596 ft | 477 kts | 140° |
| 2026-05-07 19:02 | 39.55907 | 15.73264 | 38802 ft | 477 kts | 140° |
| 2026-05-07 19:03 | 39.51588 | 15.79775 | 38932 ft | 480 kts | 140° |
| 2026-05-07 19:03 | 39.47252 | 15.86301 | 38948 ft | 480 kts | 140° |
| 2026-05-07 19:04 | 39.42921 | 15.92798 | 38948 ft | 479 kts | 140° |
| 2026-05-07 19:04 | 39.38559 | 15.99328 | 38947 ft | 483 kts | 140° |
| 2026-05-07 19:05 | 39.34200 | 16.05864 | 38940 ft | 479 kts | 140° |
| 2026-05-07 19:05 | 39.29813 | 16.12399 | 38946 ft | 482 kts | 139° |
| 2026-05-07 19:06 | 39.25456 | 16.18892 | 38946 ft | 481 kts | 139° |
| 2026-05-07 19:06 | 39.19095 | 16.28867 | 38959 ft | 485 kts | 131° |
| 2026-05-07 19:07 | 39.15689 | 16.36482 | 38969 ft | 497 kts | 120° |
| 2026-05-07 19:07 | 39.13278 | 16.44843 | 38978 ft | 505 kts | 111° |
| 2026-05-07 19:08 | 39.11345 | 16.53548 | 38985 ft | 504 kts | 110° |
| 2026-05-07 19:08 | 39.09419 | 16.62162 | 38993 ft | 503 kts | 110° |
| 2026-05-07 19:09 | 39.07451 | 16.70773 | 38990 ft | 502 kts | 111° |
| 2026-05-07 19:09 | 39.05455 | 16.79407 | 39002 ft | 503 kts | 111° |
| 2026-05-07 19:10 | 39.03457 | 16.87981 | 39002 ft | 503 kts | 111° |
| 2026-05-07 19:10 | 39.01462 | 16.96544 | 39001 ft | 503 kts | 111° |
| 2026-05-07 19:11 | 38.99458 | 17.05113 | 39004 ft | 501 kts | 111° |
| 2026-05-07 19:11 | 38.97435 | 17.13711 | 39004 ft | 502 kts | 111° |
| 2026-05-07 19:12 | 38.95432 | 17.22212 | 39001 ft | 501 kts | 111° |
| 2026-05-07 19:12 | 38.93393 | 17.30812 | 38997 ft | 504 kts | 110° |
| 2026-05-07 19:13 | 38.91373 | 17.39339 | 39005 ft | 501 kts | 111° |
| 2026-05-07 19:13 | 38.89339 | 17.47875 | 38984 ft | 501 kts | 111° |
| 2026-05-07 19:14 | 38.87289 | 17.56414 | 38980 ft | 502 kts | 110° |
| 2026-05-07 19:14 | 38.85236 | 17.64974 | 38985 ft | 502 kts | 110° |
| 2026-05-07 19:15 | 38.83181 | 17.73508 | 38986 ft | 502 kts | 111° |
| 2026-05-07 19:15 | 38.81127 | 17.82000 | 38984 ft | 501 kts | 111° |
| 2026-05-07 19:16 | 38.79059 | 17.90518 | 38983 ft | 502 kts | 111° |
| 2026-05-07 19:16 | 38.76990 | 17.99006 | 38985 ft | 503 kts | 111° |
| 2026-05-07 19:17 | 38.74913 | 18.07501 | 38982 ft | 502 kts | 111° |
| 2026-05-07 19:17 | 38.72832 | 18.16002 | 38990 ft | 502 kts | 111° |
| 2026-05-07 19:18 | 38.70734 | 18.24511 | 38989 ft | 503 kts | 110° |
| 2026-05-07 19:18 | 38.68623 | 18.33049 | 38990 ft | 505 kts | 110° |
| 2026-05-07 19:19 | 38.66503 | 18.41600 | 38993 ft | 505 kts | 110° |
| 2026-05-07 19:19 | 38.64385 | 18.50120 | 38993 ft | 505 kts | 110° |
| 2026-05-07 19:20 | 38.62263 | 18.58629 | 38998 ft | 506 kts | 110° |
| 2026-05-07 19:20 | 38.60118 | 18.67189 | 38997 ft | 505 kts | 111° |
| 2026-05-07 19:21 | 38.57973 | 18.75698 | 39003 ft | 507 kts | 110° |
| 2026-05-07 19:21 | 38.55817 | 18.84250 | 39008 ft | 506 kts | 110° |
| 2026-05-07 19:22 | 38.53659 | 18.92779 | 39007 ft | 506 kts | 110° |
| 2026-05-07 19:22 | 38.51620 | 19.01369 | 39006 ft | 508 kts | 104° |
| 2026-05-07 19:23 | 38.50167 | 19.10159 | 39005 ft | 508 kts | 102° |
| 2026-05-07 19:23 | 38.48799 | 19.18985 | 39008 ft | 508 kts | 102° |
| 2026-05-07 19:24 | 38.47411 | 19.27796 | 39015 ft | 508 kts | 102° |
| 2026-05-07 19:24 | 38.46010 | 19.36583 | 39018 ft | 508 kts | 102° |
| 2026-05-07 19:25 | 38.44591 | 19.45390 | 39021 ft | 508 kts | 102° |
| 2026-05-07 19:25 | 38.43174 | 19.54135 | 39028 ft | 508 kts | 102° |
| 2026-05-07 19:26 | 38.41746 | 19.62917 | 39032 ft | 506 kts | 101° |
| 2026-05-07 19:26 | 38.40305 | 19.71752 | 39034 ft | 507 kts | 102° |
| 2026-05-07 19:27 | 38.38861 | 19.80524 | 39042 ft | 507 kts | 102° |
| 2026-05-07 19:27 | 38.37426 | 19.89217 | 39042 ft | 505 kts | 102° |
| 2026-05-07 19:28 | 38.35976 | 19.97949 | 39048 ft | 505 kts | 102° |
| 2026-05-07 19:28 | 38.34528 | 20.06651 | 39055 ft | 504 kts | 102° |
| 2026-05-07 19:29 | 38.33073 | 20.15331 | 39058 ft | 504 kts | 102° |
| 2026-05-07 19:29 | 38.31599 | 20.24085 | 39062 ft | 506 kts | 101° |
| 2026-05-07 19:30 | 38.30396 | 20.32850 | 39068 ft | 505 kts | 98° |
| 2026-05-07 19:30 | 38.29292 | 20.41670 | 39083 ft | 506 kts | 97° |
| 2026-05-07 19:31 | 38.28175 | 20.50462 | 39095 ft | 507 kts | 98° |
| 2026-05-07 19:31 | 38.27037 | 20.59290 | 39087 ft | 506 kts | 97° |
| 2026-05-07 19:32 | 38.25891 | 20.68137 | 39068 ft | 508 kts | 99° |
| 2026-05-07 19:32 | 38.24732 | 20.76977 | 39077 ft | 509 kts | 98° |
| 2026-05-07 19:33 | 38.23572 | 20.85790 | 39085 ft | 509 kts | 98° |
| 2026-05-07 19:33 | 38.22400 | 20.94680 | 39088 ft | 510 kts | 98° |
| 2026-05-07 19:34 | 38.21217 | 21.03532 | 39092 ft | 509 kts | 97° |
| 2026-05-07 19:34 | 38.20035 | 21.12373 | 39102 ft | 509 kts | 97° |
| 2026-05-07 19:35 | 38.18861 | 21.21138 | 39107 ft | 507 kts | 97° |
| 2026-05-07 19:35 | 38.17656 | 21.29989 | 39117 ft | 507 kts | 98° |
| 2026-05-07 19:36 | 38.15966 | 21.38598 | 39115 ft | 507 kts | 111° |
| 2026-05-07 19:36 | 38.12628 | 21.46460 | 39116 ft | 504 kts | 128° |
| 2026-05-07 19:37 | 38.07934 | 21.52947 | 39126 ft | 501 kts | 140° |
| 2026-05-07 19:37 | 38.02839 | 21.58971 | 39122 ft | 499 kts | 141° |
| 2026-05-07 19:38 | 37.97795 | 21.64996 | 39130 ft | 500 kts | 140° |
| 2026-05-07 19:38 | 37.92770 | 21.71076 | 39131 ft | 500 kts | 140° |
| 2026-05-07 19:39 | 37.87726 | 21.77193 | 39149 ft | 501 kts | 140° |
| 2026-05-07 19:39 | 37.82725 | 21.83248 | 39165 ft | 500 kts | 140° |
| 2026-05-07 19:40 | 37.77684 | 21.89332 | 39176 ft | 501 kts | 140° |
| 2026-05-07 19:40 | 37.72664 | 21.95388 | 39171 ft | 499 kts | 139° |
| 2026-05-07 19:41 | 37.67645 | 22.01422 | 39168 ft | 500 kts | 139° |
| 2026-05-07 19:41 | 37.62608 | 22.07471 | 39167 ft | 499 kts | 139° |
| 2026-05-07 19:42 | 37.57586 | 22.13488 | 39171 ft | 501 kts | 139° |
| 2026-05-07 19:42 | 37.52531 | 22.19534 | 39167 ft | 502 kts | 140° |
| 2026-05-07 19:43 | 37.47488 | 22.25555 | 39172 ft | 501 kts | 139° |
| 2026-05-07 19:43 | 37.42425 | 22.31586 | 39168 ft | 501 kts | 139° |
| 2026-05-07 19:44 | 37.37202 | 22.37271 | 39166 ft | 499 kts | 144° |
| 2026-05-07 19:44 | 37.31769 | 22.42708 | 39164 ft | 498 kts | 144° |
| 2026-05-07 19:45 | 37.26344 | 22.48120 | 39161 ft | 501 kts | 144° |
| 2026-05-07 19:45 | 37.20923 | 22.53545 | 39165 ft | 499 kts | 145° |
| 2026-05-07 19:46 | 37.15489 | 22.58968 | 39157 ft | 500 kts | 144° |
| 2026-05-07 19:46 | 37.10045 | 22.64405 | 39160 ft | 499 kts | 144° |
| 2026-05-07 19:47 | 37.04588 | 22.69832 | 38402 ft | 505 kts | 145° |
| 2026-05-07 19:47 | 37.01876 | 22.72527 | 37720 ft | 504 kts | 145° |
| 2026-05-07 19:47 | 36.99122 | 22.75266 | 37110 ft | 501 kts | 145° |
| 2026-05-07 19:48 | 36.96434 | 22.77937 | 36545 ft | 497 kts | 145° |
| 2026-05-07 19:48 | 36.93739 | 22.80612 | 35936 ft | 494 kts | 145° |
| 2026-05-07 19:48 | 36.91076 | 22.83254 | 35300 ft | 492 kts | 145° |
| 2026-05-07 19:48 | 36.88383 | 22.85916 | 34693 ft | 491 kts | 146° |
| 2026-05-07 19:49 | 36.85685 | 22.88577 | 34070 ft | 493 kts | 145° |
| 2026-05-07 19:49 | 36.83021 | 22.91213 | 33424 ft | 493 kts | 145° |
| 2026-05-07 19:49 | 36.80343 | 22.93853 | 32780 ft | 494 kts | 146° |
| 2026-05-07 19:49 | 36.77640 | 22.96514 | 32202 ft | 494 kts | 146° |
| 2026-05-07 19:50 | 36.74965 | 22.99150 | 31580 ft | 495 kts | 145° |
| 2026-05-07 19:50 | 36.72257 | 23.01815 | 31074 ft | 490 kts | 145° |
| 2026-05-07 19:50 | 36.69610 | 23.04415 | 30645 ft | 486 kts | 144° |
| 2026-05-07 19:50 | 36.66988 | 23.06991 | 30173 ft | 482 kts | 145° |
| 2026-05-07 19:51 | 36.64336 | 23.09600 | 29731 ft | 478 kts | 145° |
| 2026-05-07 19:51 | 36.61753 | 23.12134 | 29346 ft | 474 kts | 144° |
| 2026-05-07 19:51 | 36.59138 | 23.14695 | 28889 ft | 471 kts | 144° |
| 2026-05-07 19:51 | 36.56571 | 23.17213 | 28446 ft | 467 kts | 144° |
| 2026-05-07 19:52 | 36.54049 | 23.19680 | 28038 ft | 463 kts | 144° |
| 2026-05-07 19:52 | 36.51517 | 23.22151 | 27595 ft | 460 kts | 144° |
| 2026-05-07 19:52 | 36.49005 | 23.24607 | 27152 ft | 456 kts | 144° |
| 2026-05-07 19:52 | 36.46544 | 23.27005 | 26715 ft | 453 kts | 144° |
| 2026-05-07 19:53 | 36.44067 | 23.29421 | 26285 ft | 450 kts | 144° |
| 2026-05-07 19:53 | 36.41617 | 23.31811 | 25874 ft | 446 kts | 144° |
| 2026-05-07 19:53 | 36.39205 | 23.34160 | 25449 ft | 443 kts | 144° |
| 2026-05-07 19:53 | 36.36787 | 23.36510 | 25008 ft | 440 kts | 144° |
| 2026-05-07 19:54 | 36.34376 | 23.38851 | 24604 ft | 436 kts | 144° |
| 2026-05-07 19:54 | 36.32022 | 23.41138 | 24215 ft | 432 kts | 144° |
| 2026-05-07 19:54 | 36.29646 | 23.43443 | 23773 ft | 430 kts | 144° |
| 2026-05-07 19:54 | 36.27325 | 23.45693 | 23345 ft | 427 kts | 144° |
| 2026-05-07 19:55 | 36.24985 | 23.47959 | 22917 ft | 425 kts | 144° |
| 2026-05-07 19:55 | 36.22660 | 23.50210 | 22492 ft | 422 kts | 144° |
| 2026-05-07 19:55 | 36.20368 | 23.52423 | 22047 ft | 420 kts | 144° |
| 2026-05-07 19:55 | 36.18061 | 23.54654 | 21645 ft | 417 kts | 144° |
| 2026-05-07 19:56 | 36.15804 | 23.56833 | 21229 ft | 414 kts | 144° |
| 2026-05-07 19:56 | 36.13530 | 23.59028 | 20746 ft | 413 kts | 144° |
| 2026-05-07 19:56 | 36.11293 | 23.61182 | 20302 ft | 410 kts | 144° |
| 2026-05-07 19:56 | 36.09060 | 23.63333 | 19895 ft | 406 kts | 143° |
| 2026-05-07 19:57 | 36.06850 | 23.65463 | 19475 ft | 402 kts | 144° |
| 2026-05-07 19:57 | 36.04637 | 23.67594 | 19061 ft | 398 kts | 144° |
| 2026-05-07 19:57 | 36.02459 | 23.69689 | 18655 ft | 394 kts | 144° |
| 2026-05-07 19:57 | 36.00329 | 23.71734 | 18262 ft | 389 kts | 144° |
| 2026-05-07 19:58 | 35.98196 | 23.73781 | 17883 ft | 385 kts | 144° |
| 2026-05-07 19:58 | 35.96085 | 23.75806 | 17504 ft | 380 kts | 144° |
| 2026-05-07 19:58 | 35.94019 | 23.77787 | 17095 ft | 377 kts | 144° |
| 2026-05-07 19:58 | 35.91953 | 23.79768 | 16657 ft | 374 kts | 144° |
| 2026-05-07 19:59 | 35.89926 | 23.81707 | 16221 ft | 372 kts | 144° |
| 2026-05-07 19:59 | 35.87865 | 23.83678 | 15781 ft | 369 kts | 144° |
| 2026-05-07 19:59 | 35.85865 | 23.85590 | 15360 ft | 366 kts | 144° |
| 2026-05-07 19:59 | 35.83852 | 23.87517 | 14925 ft | 363 kts | 144° |
| 2026-05-07 20:00 | 35.81880 | 23.89399 | 14506 ft | 360 kts | 144° |
| 2026-05-07 20:00 | 35.79904 | 23.91284 | 14102 ft | 357 kts | 144° |
| 2026-05-07 20:00 | 35.77941 | 23.93157 | 13689 ft | 354 kts | 144° |
| 2026-05-07 20:00 | 35.76024 | 23.94983 | 13270 ft | 351 kts | 144° |
| 2026-05-07 20:01 | 35.74088 | 23.96826 | 12845 ft | 348 kts | 144° |
| 2026-05-07 20:01 | 35.72181 | 23.98638 | 12420 ft | 346 kts | 144° |
| 2026-05-07 20:01 | 35.70288 | 24.00447 | 12007 ft | 344 kts | 141° |
| 2026-05-07 20:01 | 35.68712 | 24.02649 | 11534 ft | 345 kts | 120° |
| 2026-05-07 20:02 | 35.67927 | 24.05380 | 11106 ft | 342 kts | 97° |
| 2026-05-07 20:02 | 35.68023 | 24.08262 | 10603 ft | 337 kts | 75° |
| 2026-05-07 20:02 | 35.68818 | 24.10908 | 9918 ft | 328 kts | 60° |
| 2026-05-07 20:02 | 35.69952 | 24.13304 | 9238 ft | 321 kts | 58° |
| 2026-05-07 20:03 | 35.70898 | 24.15717 | 8559 ft | 316 kts | 69° |
| 2026-05-07 20:03 | 35.71456 | 24.18300 | 7873 ft | 311 kts | 81° |
| 2026-05-07 20:03 | 35.71603 | 24.20926 | 7185 ft | 306 kts | 91° |
| 2026-05-07 20:03 | 35.71397 | 24.23497 | 6497 ft | 300 kts | 100° |
| 2026-05-07 20:04 | 35.70902 | 24.25953 | 5810 ft | 294 kts | 108° |
| 2026-05-07 20:04 | 35.70172 | 24.28264 | 5170 ft | 286 kts | 115° |
| 2026-05-07 20:04 | 35.69290 | 24.30329 | 4939 ft | 268 kts | 121° |
| 2026-05-07 20:04 | 35.68255 | 24.32258 | 4741 ft | 267 kts | 126° |
| 2026-05-07 20:05 | 35.67101 | 24.34007 | 4545 ft | 266 kts | 131° |
| 2026-05-07 20:05 | 35.65802 | 24.35630 | 4346 ft | 264 kts | 137° |
| 2026-05-07 20:05 | 35.64390 | 24.37088 | 4148 ft | 264 kts | 142° |
| 2026-05-07 20:05 | 35.62885 | 24.38369 | 3989 ft | 263 kts | 148° |
| 2026-05-07 20:06 | 35.61288 | 24.39472 | 3972 ft | 262 kts | 153° |
| 2026-05-07 20:06 | 35.59636 | 24.40382 | 3972 ft | 263 kts | 158° |
| 2026-05-07 20:06 | 35.57901 | 24.41113 | 3966 ft | 258 kts | 163° |
| 2026-05-07 20:06 | 35.56209 | 24.41620 | 3961 ft | 242 kts | 168° |
| 2026-05-07 20:07 | 35.54595 | 24.41930 | 3957 ft | 227 kts | 173° |
| 2026-05-07 20:07 | 35.53070 | 24.42073 | 3951 ft | 213 kts | 177° |
| 2026-05-07 20:07 | 35.51633 | 24.42076 | 3952 ft | 203 kts | 181° |
| 2026-05-07 20:07 | 35.50261 | 24.41961 | 4038 ft | 188 kts | 185° |
| 2026-05-07 20:08 | 35.49014 | 24.41752 | 3982 ft | 172 kts | 188° |
| 2026-05-07 20:08 | 35.47883 | 24.41478 | 3949 ft | 159 kts | 191° |
| 2026-05-07 20:08 | 35.46867 | 24.41044 | 3954 ft | 157 kts | 208° |
| 2026-05-07 20:08 | 35.46052 | 24.40159 | 3942 ft | 156 kts | 232° |
| 2026-05-07 20:09 | 35.45630 | 24.38996 | 3867 ft | 147 kts | 257° |
| 2026-05-07 20:09 | 35.45623 | 24.37758 | 3778 ft | 146 kts | 280° |
| 2026-05-07 20:09 | 35.45947 | 24.36575 | 3694 ft | 146 kts | 290° |
| 2026-05-07 20:10 | 35.46742 | 24.34284 | 3503 ft | 146 kts | 291° |
| 2026-05-07 20:10 | 35.47139 | 24.33153 | 3400 ft | 145 kts | 291° |
| 2026-05-07 20:10 | 35.47544 | 24.32004 | 3302 ft | 145 kts | 291° |
| 2026-05-07 20:10 | 35.47944 | 24.30876 | 3189 ft | 145 kts | 291° |
| 2026-05-07 20:11 | 35.48355 | 24.29731 | 3045 ft | 145 kts | 292° |
| 2026-05-07 20:11 | 35.48770 | 24.28616 | 2933 ft | 145 kts | 291° |
| 2026-05-07 20:11 | 35.49142 | 24.27464 | 2782 ft | 144 kts | 288° |
| 2026-05-07 20:11 | 35.49488 | 24.26321 | 2635 ft | 144 kts | 290° |
| 2026-05-07 20:12 | 35.49863 | 24.25173 | 2338 ft | 144 kts | 291° |
| 2026-05-07 20:12 | 35.50234 | 24.24058 | 2010 ft | 142 kts | 290° |
| 2026-05-07 20:12 | 35.50584 | 24.22937 | 1645 ft | 141 kts | 289° |
| 2026-05-07 20:12 | 35.50936 | 24.21812 | 1306 ft | 138 kts | 291° |
| 2026-05-07 20:13 | 35.51297 | 24.20738 | 1139 ft | 137 kts | 290° |
| 2026-05-07 20:13 | 35.51644 | 24.19651 | 964 ft | 137 kts | 291° |
| 2026-05-07 20:13 | 35.51999 | 24.18569 | 806 ft | 136 kts | 291° |
| 2026-05-07 20:13 | 35.52352 | 24.17486 | 656 ft | 136 kts | 291° |
| 2026-05-07 20:14 | 35.52707 | 24.16409 | 505 ft | 134 kts | 291° |
| 2026-05-07 20:14 | 35.53022 | 24.15442 | 473 ft | 103 kts | 290° |
| 2026-05-07 20:14 | 35.53221 | 24.14817 | 464 ft | 53 kts | 294° |
| 2026-05-07 20:14 | 35.53298 | 24.14584 | 462 ft | 12 kts | 291° |
| 2026-05-07 20:15 | 35.53350 | 24.14420 | 461 ft | 26 kts | 291° |
| 2026-05-07 20:15 | 35.53423 | 24.14270 | 460 ft | 12 kts | 349° |
| 2026-05-07 20:15 | 35.53510 | 24.14299 | 459 ft | 14 kts | 20° |
| 2026-05-07 20:15 | 35.53606 | 24.14344 | 457 ft | 16 kts | 21° |
| 2026-05-07 20:16 | 35.53682 | 24.14351 | 453 ft | 11 kts | 308° |
| 2026-05-07 20:16 | 35.53714 | 24.14254 | 453 ft | 12 kts | 290° |
| 2026-05-07 20:16 | 35.53747 | 24.14150 | 453 ft | 13 kts | 291° |
| 2026-05-07 20:16 | 35.53780 | 24.14051 | 452 ft | 6 kts | 300° |
| 2026-05-07 20:17 | 35.53824 | 24.14045 | 450 ft | 6 kts | 21° |
| 2026-05-07 20:17 | 35.53857 | 24.14061 | 449 ft | 3 kts | 20° |
| 2026-05-07 20:17 | 35.53859 | 24.14062 | 449 ft | 0 kts | 20° |